sensor_id;sensor_type;location;lat;lon;timestamp;P1;durP1;ratioP1;P2;durP2;ratioP2
26594;SDS011;14238;49.496;8.154;2022-11-20T00:00:50;18.70;;;15.60;;
26594;SDS011;14238;49.496;8.154;2022-11-20T00:03:16;17.67;;;15.77;;
26594;SDS011;14238;49.496;8.154;2022-11-20T00:05:42;19.30;;;16.97;;
26594;SDS011;14238;49.496;8.154;2022-11-20T00:08:09;17.87;;;15.93;;
26594;SDS011;14238;49.496;8.154;2022-11-20T00:10:36;18.30;;;15.93;;
26594;SDS011;14238;49.496;8.154;2022-11-20T00:13:02;20.80;;;17.07;;
26594;SDS011;14238;49.496;8.154;2022-11-20T00:15:28;21.00;;;17.10;;
26594;SDS011;14238;49.496;8.154;2022-11-20T00:17:53;20.20;;;17.07;;
26594;SDS011;14238;49.496;8.154;2022-11-20T00:20:19;20.07;;;17.30;;
26594;SDS011;14238;49.496;8.154;2022-11-20T00:22:44;21.50;;;17.10;;
26594;SDS011;14238;49.496;8.154;2022-11-20T00:25:10;19.93;;;16.73;;
26594;SDS011;14238;49.496;8.154;2022-11-20T00:27:36;19.57;;;17.20;;
26594;SDS011;14238;49.496;8.154;2022-11-20T00:30:02;17.97;;;14.90;;
26594;SDS011;14238;49.496;8.154;2022-11-20T00:32:29;18.03;;;15.97;;
26594;SDS011;14238;49.496;8.154;2022-11-20T00:34:54;20.70;;;16.40;;
26594;SDS011;14238;49.496;8.154;2022-11-20T00:37:20;17.40;;;14.93;;
26594;SDS011;14238;49.496;8.154;2022-11-20T00:39:46;20.70;;;15.83;;
26594;SDS011;14238;49.496;8.154;2022-11-20T00:42:11;18.70;;;15.10;;
26594;SDS011;14238;49.496;8.154;2022-11-20T00:44:37;19.13;;;16.10;;
26594;SDS011;14238;49.496;8.154;2022-11-20T00:47:02;20.13;;;17.00;;
26594;SDS011;14238;49.496;8.154;2022-11-20T00:49:28;22.00;;;18.10;;
26594;SDS011;14238;49.496;8.154;2022-11-20T00:51:53;21.37;;;17.30;;
26594;SDS011;14238;49.496;8.154;2022-11-20T00:54:19;21.20;;;17.67;;
26594;SDS011;14238;49.496;8.154;2022-11-20T00:56:44;21.80;;;18.10;;
26594;SDS011;14238;49.496;8.154;2022-11-20T00:59:10;21.73;;;16.60;;
26594;SDS011;14238;49.496;8.154;2022-11-20T01:01:36;22.37;;;19.30;;
26594;SDS011;14238;49.496;8.154;2022-11-20T01:04:02;23.37;;;17.37;;
26594;SDS011;14238;49.496;8.154;2022-11-20T01:06:29;20.90;;;17.20;;
26594;SDS011;14238;49.496;8.154;2022-11-20T01:08:57;22.93;;;18.67;;
26594;SDS011;14238;49.496;8.154;2022-11-20T01:11:28;20.43;;;16.60;;
26594;SDS011;14238;49.496;8.154;2022-11-20T01:13:56;22.90;;;17.70;;
26594;SDS011;14238;49.496;8.154;2022-11-20T01:16:24;21.83;;;17.40;;
26594;SDS011;14238;49.496;8.154;2022-11-20T01:18:52;21.87;;;18.30;;
26594;SDS011;14238;49.496;8.154;2022-11-20T01:21:30;20.60;;;16.53;;
26594;SDS011;14238;49.496;8.154;2022-11-20T01:24:01;20.37;;;17.00;;
26594;SDS011;14238;49.496;8.154;2022-11-20T01:26:29;20.70;;;17.20;;
26594;SDS011;14238;49.496;8.154;2022-11-20T01:28:56;23.10;;;17.20;;
26594;SDS011;14238;49.496;8.154;2022-11-20T01:34:02;23.90;;;19.00;;
26594;SDS011;14238;49.496;8.154;2022-11-20T01:36:34;22.03;;;17.37;;
26594;SDS011;14238;49.496;8.154;2022-11-20T01:39:02;23.60;;;17.73;;
26594;SDS011;14238;49.496;8.154;2022-11-20T01:41:30;21.43;;;17.47;;
26594;SDS011;14238;49.496;8.154;2022-11-20T01:44:16;22.83;;;18.30;;
26594;SDS011;14238;49.496;8.154;2022-11-20T01:47:00;22.57;;;16.37;;
26594;SDS011;14238;49.496;8.154;2022-11-20T01:49:40;20.33;;;16.50;;
26594;SDS011;14238;49.496;8.154;2022-11-20T01:52:18;19.40;;;15.87;;
26594;SDS011;14238;49.496;8.154;2022-11-20T01:54:54;20.97;;;17.27;;
26594;SDS011;14238;49.496;8.154;2022-11-20T01:57:25;22.40;;;18.30;;
26594;SDS011;14238;49.496;8.154;2022-11-20T01:59:56;20.83;;;16.87;;
26594;SDS011;14238;49.496;8.154;2022-11-20T02:02:25;23.53;;;17.40;;
26594;SDS011;14238;49.496;8.154;2022-11-20T02:04:51;19.17;;;16.03;;
26594;SDS011;14238;49.496;8.154;2022-11-20T02:07:20;20.73;;;16.53;;
26594;SDS011;14238;49.496;8.154;2022-11-20T02:09:47;22.87;;;17.53;;
26594;SDS011;14238;49.496;8.154;2022-11-20T02:12:13;22.10;;;16.63;;
26594;SDS011;14238;49.496;8.154;2022-11-20T02:14:59;23.67;;;19.03;;
26594;SDS011;14238;49.496;8.154;2022-11-20T02:17:25;20.13;;;16.50;;
26594;SDS011;14238;49.496;8.154;2022-11-20T02:19:50;22.90;;;17.37;;
26594;SDS011;14238;49.496;8.154;2022-11-20T02:22:22;21.20;;;18.00;;
26594;SDS011;14238;49.496;8.154;2022-11-20T02:24:55;21.03;;;17.67;;
26594;SDS011;14238;49.496;8.154;2022-11-20T02:27:23;21.87;;;17.73;;
26594;SDS011;14238;49.496;8.154;2022-11-20T02:29:53;21.80;;;16.20;;
26594;SDS011;14238;49.496;8.154;2022-11-20T02:32:27;20.97;;;16.90;;
26594;SDS011;14238;49.496;8.154;2022-11-20T02:34:55;19.83;;;15.47;;
26594;SDS011;14238;49.496;8.154;2022-11-20T02:37:21;22.10;;;17.57;;
26594;SDS011;14238;49.496;8.154;2022-11-20T02:39:48;17.20;;;14.77;;
26594;SDS011;14238;49.496;8.154;2022-11-20T02:42:16;18.80;;;15.57;;
26594;SDS011;14238;49.496;8.154;2022-11-20T02:44:42;17.13;;;14.50;;
26594;SDS011;14238;49.496;8.154;2022-11-20T02:47:07;14.23;;;12.43;;
26594;SDS011;14238;49.496;8.154;2022-11-20T02:49:33;13.90;;;11.83;;
26594;SDS011;14238;49.496;8.154;2022-11-20T02:51:59;14.47;;;11.90;;
26594;SDS011;14238;49.496;8.154;2022-11-20T02:54:24;14.50;;;11.67;;
26594;SDS011;14238;49.496;8.154;2022-11-20T02:56:50;12.00;;;10.77;;
26594;SDS011;14238;49.496;8.154;2022-11-20T02:59:16;13.90;;;12.37;;
26594;SDS011;14238;49.496;8.154;2022-11-20T03:01:41;19.00;;;14.30;;
26594;SDS011;14238;49.496;8.154;2022-11-20T03:04:07;18.83;;;15.43;;
26594;SDS011;14238;49.496;8.154;2022-11-20T03:06:32;21.87;;;16.93;;
26594;SDS011;14238;49.496;8.154;2022-11-20T03:08:58;20.47;;;16.07;;
26594;SDS011;14238;49.496;8.154;2022-11-20T03:11:24;18.60;;;16.47;;
26594;SDS011;14238;49.496;8.154;2022-11-20T03:13:49;19.63;;;15.73;;
26594;SDS011;14238;49.496;8.154;2022-11-20T03:16:17;20.43;;;16.87;;
26594;SDS011;14238;49.496;8.154;2022-11-20T03:18:47;20.27;;;15.87;;
26594;SDS011;14238;49.496;8.154;2022-11-20T03:21:13;19.40;;;16.10;;
26594;SDS011;14238;49.496;8.154;2022-11-20T03:23:40;20.00;;;16.50;;
26594;SDS011;14238;49.496;8.154;2022-11-20T03:26:13;18.07;;;14.83;;
26594;SDS011;14238;49.496;8.154;2022-11-20T03:28:42;16.90;;;14.90;;
26594;SDS011;14238;49.496;8.154;2022-11-20T03:31:12;18.87;;;14.17;;
26594;SDS011;14238;49.496;8.154;2022-11-20T03:33:39;18.43;;;14.20;;
26594;SDS011;14238;49.496;8.154;2022-11-20T03:36:07;18.43;;;14.77;;
26594;SDS011;14238;49.496;8.154;2022-11-20T03:38:35;15.90;;;12.87;;
26594;SDS011;14238;49.496;8.154;2022-11-20T03:41:01;15.37;;;12.97;;
26594;SDS011;14238;49.496;8.154;2022-11-20T03:43:28;12.93;;;11.13;;
26594;SDS011;14238;49.496;8.154;2022-11-20T03:45:54;13.67;;;11.93;;
26594;SDS011;14238;49.496;8.154;2022-11-20T03:48:20;13.63;;;11.60;;
26594;SDS011;14238;49.496;8.154;2022-11-20T03:50:45;11.93;;;10.73;;
26594;SDS011;14238;49.496;8.154;2022-11-20T03:53:12;13.30;;;11.10;;
26594;SDS011;14238;49.496;8.154;2022-11-20T03:55:38;13.13;;;11.70;;
26594;SDS011;14238;49.496;8.154;2022-11-20T03:58:04;13.70;;;11.63;;
26594;SDS011;14238;49.496;8.154;2022-11-20T04:00:29;16.33;;;13.00;;
26594;SDS011;14238;49.496;8.154;2022-11-20T04:02:58;25.60;;;18.53;;
26594;SDS011;14238;49.496;8.154;2022-11-20T04:05:24;47.50;;;20.10;;
26594;SDS011;14238;49.496;8.154;2022-11-20T04:07:50;35.33;;;18.83;;
26594;SDS011;14238;49.496;8.154;2022-11-20T04:10:16;23.67;;;16.70;;
26594;SDS011;14238;49.496;8.154;2022-11-20T04:12:42;26.43;;;16.60;;
26594;SDS011;14238;49.496;8.154;2022-11-20T04:15:07;19.60;;;16.27;;
26594;SDS011;14238;49.496;8.154;2022-11-20T04:17:33;18.27;;;15.10;;
26594;SDS011;14238;49.496;8.154;2022-11-20T04:19:59;20.23;;;15.87;;
26594;SDS011;14238;49.496;8.154;2022-11-20T04:22:24;19.77;;;16.00;;
26594;SDS011;14238;49.496;8.154;2022-11-20T04:24:50;20.83;;;15.67;;
26594;SDS011;14238;49.496;8.154;2022-11-20T04:27:15;21.33;;;15.33;;
26594;SDS011;14238;49.496;8.154;2022-11-20T04:29:41;21.90;;;15.60;;
26594;SDS011;14238;49.496;8.154;2022-11-20T04:32:07;17.60;;;14.07;;
26594;SDS011;14238;49.496;8.154;2022-11-20T04:34:32;20.40;;;14.87;;
26594;SDS011;14238;49.496;8.154;2022-11-20T04:36:58;18.87;;;14.90;;
26594;SDS011;14238;49.496;8.154;2022-11-20T04:39:23;16.77;;;13.47;;
26594;SDS011;14238;49.496;8.154;2022-11-20T04:41:49;18.67;;;15.90;;
26594;SDS011;14238;49.496;8.154;2022-11-20T04:44:34;16.50;;;13.87;;
26594;SDS011;14238;49.496;8.154;2022-11-20T04:47:00;18.60;;;14.17;;
26594;SDS011;14238;49.496;8.154;2022-11-20T04:49:26;14.30;;;12.13;;
26594;SDS011;14238;49.496;8.154;2022-11-20T04:51:54;15.70;;;13.07;;
26594;SDS011;14238;49.496;8.154;2022-11-20T04:54:19;18.37;;;14.23;;
26594;SDS011;14238;49.496;8.154;2022-11-20T04:56:47;15.50;;;12.03;;
26594;SDS011;14238;49.496;8.154;2022-11-20T04:59:13;14.83;;;12.10;;
26594;SDS011;14238;49.496;8.154;2022-11-20T05:01:38;17.43;;;13.20;;
26594;SDS011;14238;49.496;8.154;2022-11-20T05:04:04;14.60;;;12.33;;
26594;SDS011;14238;49.496;8.154;2022-11-20T05:06:30;14.57;;;12.50;;
26594;SDS011;14238;49.496;8.154;2022-11-20T05:08:56;15.63;;;12.13;;
26594;SDS011;14238;49.496;8.154;2022-11-20T05:11:22;16.00;;;12.90;;
26594;SDS011;14238;49.496;8.154;2022-11-20T05:13:49;18.03;;;13.80;;
26594;SDS011;14238;49.496;8.154;2022-11-20T05:16:16;14.67;;;12.40;;
26594;SDS011;14238;49.496;8.154;2022-11-20T05:18:44;15.30;;;12.00;;
26594;SDS011;14238;49.496;8.154;2022-11-20T05:21:10;15.20;;;12.73;;
26594;SDS011;14238;49.496;8.154;2022-11-20T05:23:37;16.40;;;13.17;;
26594;SDS011;14238;49.496;8.154;2022-11-20T05:26:04;14.00;;;12.10;;
26594;SDS011;14238;49.496;8.154;2022-11-20T05:28:32;13.83;;;12.37;;
26594;SDS011;14238;49.496;8.154;2022-11-20T05:31:08;15.40;;;13.03;;
26594;SDS011;14238;49.496;8.154;2022-11-20T05:33:35;16.27;;;12.80;;
26594;SDS011;14238;49.496;8.154;2022-11-20T05:36:02;15.70;;;13.50;;
26594;SDS011;14238;49.496;8.154;2022-11-20T05:38:29;15.00;;;12.10;;
26594;SDS011;14238;49.496;8.154;2022-11-20T05:40:54;14.33;;;12.27;;
26594;SDS011;14238;49.496;8.154;2022-11-20T05:43:20;13.23;;;11.77;;
26594;SDS011;14238;49.496;8.154;2022-11-20T05:45:52;15.97;;;12.20;;
26594;SDS011;14238;49.496;8.154;2022-11-20T05:48:18;16.83;;;13.50;;
26594;SDS011;14238;49.496;8.154;2022-11-20T05:50:44;14.97;;;12.07;;
26594;SDS011;14238;49.496;8.154;2022-11-20T05:53:09;16.93;;;12.70;;
26594;SDS011;14238;49.496;8.154;2022-11-20T05:55:35;18.23;;;14.80;;
26594;SDS011;14238;49.496;8.154;2022-11-20T05:58:01;15.53;;;12.63;;
26594;SDS011;14238;49.496;8.154;2022-11-20T06:00:26;17.23;;;13.60;;
26594;SDS011;14238;49.496;8.154;2022-11-20T06:02:51;18.73;;;14.23;;
26594;SDS011;14238;49.496;8.154;2022-11-20T06:05:17;20.00;;;14.10;;
26594;SDS011;14238;49.496;8.154;2022-11-20T06:07:43;15.10;;;12.23;;
26594;SDS011;14238;49.496;8.154;2022-11-20T06:10:08;16.40;;;13.13;;
26594;SDS011;14238;49.496;8.154;2022-11-20T06:12:34;16.10;;;12.83;;
26594;SDS011;14238;49.496;8.154;2022-11-20T06:15:00;15.40;;;12.70;;
26594;SDS011;14238;49.496;8.154;2022-11-20T06:17:25;21.37;;;15.43;;
26594;SDS011;14238;49.496;8.154;2022-11-20T06:19:51;20.70;;;14.50;;
26594;SDS011;14238;49.496;8.154;2022-11-20T06:22:17;40.33;;;17.13;;
26594;SDS011;14238;49.496;8.154;2022-11-20T06:24:42;29.77;;;15.57;;
26594;SDS011;14238;49.496;8.154;2022-11-20T06:27:09;40.83;;;17.40;;
26594;SDS011;14238;49.496;8.154;2022-11-20T06:29:34;25.23;;;14.50;;
26594;SDS011;14238;49.496;8.154;2022-11-20T06:32:00;22.50;;;15.63;;
26594;SDS011;14238;49.496;8.154;2022-11-20T06:34:26;26.50;;;15.50;;
26594;SDS011;14238;49.496;8.154;2022-11-20T06:36:52;18.37;;;13.93;;
26594;SDS011;14238;49.496;8.154;2022-11-20T06:39:17;23.93;;;14.83;;
26594;SDS011;14238;49.496;8.154;2022-11-20T06:41:43;16.63;;;13.87;;
26594;SDS011;14238;49.496;8.154;2022-11-20T06:44:08;19.10;;;14.47;;
26594;SDS011;14238;49.496;8.154;2022-11-20T06:46:34;19.27;;;14.70;;
26594;SDS011;14238;49.496;8.154;2022-11-20T06:49:00;18.93;;;13.80;;
26594;SDS011;14238;49.496;8.154;2022-11-20T06:51:25;19.60;;;14.13;;
26594;SDS011;14238;49.496;8.154;2022-11-20T06:53:51;18.37;;;14.50;;
26594;SDS011;14238;49.496;8.154;2022-11-20T06:56:16;22.30;;;16.00;;
26594;SDS011;14238;49.496;8.154;2022-11-20T06:58:42;21.53;;;14.90;;
26594;SDS011;14238;49.496;8.154;2022-11-20T07:01:12;20.00;;;14.73;;
26594;SDS011;14238;49.496;8.154;2022-11-20T07:03:39;21.47;;;16.13;;
26594;SDS011;14238;49.496;8.154;2022-11-20T07:06:05;22.17;;;16.63;;
26594;SDS011;14238;49.496;8.154;2022-11-20T07:08:32;24.20;;;16.40;;
26594;SDS011;14238;49.496;8.154;2022-11-20T07:10:59;23.73;;;18.87;;
26594;SDS011;14238;49.496;8.154;2022-11-20T07:13:26;23.17;;;16.97;;
26594;SDS011;14238;49.496;8.154;2022-11-20T07:15:52;19.70;;;16.33;;
26594;SDS011;14238;49.496;8.154;2022-11-20T07:18:18;18.73;;;15.30;;
26594;SDS011;14238;49.496;8.154;2022-11-20T07:20:44;18.57;;;15.53;;
26594;SDS011;14238;49.496;8.154;2022-11-20T07:23:09;20.00;;;17.17;;
26594;SDS011;14238;49.496;8.154;2022-11-20T07:25:35;19.30;;;16.03;;
26594;SDS011;14238;49.496;8.154;2022-11-20T07:28:00;18.73;;;15.03;;
26594;SDS011;14238;49.496;8.154;2022-11-20T07:30:27;15.87;;;13.67;;
26594;SDS011;14238;49.496;8.154;2022-11-20T07:32:53;20.13;;;16.50;;
26594;SDS011;14238;49.496;8.154;2022-11-20T07:35:20;19.57;;;16.73;;
26594;SDS011;14238;49.496;8.154;2022-11-20T07:37:47;23.47;;;19.87;;
26594;SDS011;14238;49.496;8.154;2022-11-20T07:40:13;20.37;;;16.50;;
26594;SDS011;14238;49.496;8.154;2022-11-20T07:42:46;20.97;;;16.33;;
26594;SDS011;14238;49.496;8.154;2022-11-20T07:45:21;19.20;;;15.43;;
26594;SDS011;14238;49.496;8.154;2022-11-20T07:47:48;19.23;;;15.10;;
26594;SDS011;14238;49.496;8.154;2022-11-20T07:50:14;18.87;;;15.47;;
26594;SDS011;14238;49.496;8.154;2022-11-20T07:52:40;20.60;;;16.30;;
26594;SDS011;14238;49.496;8.154;2022-11-20T07:55:06;18.00;;;15.67;;
26594;SDS011;14238;49.496;8.154;2022-11-20T07:57:32;20.77;;;16.10;;
26594;SDS011;14238;49.496;8.154;2022-11-20T07:59:58;18.53;;;13.87;;
26594;SDS011;14238;49.496;8.154;2022-11-20T08:02:24;18.60;;;16.07;;
26594;SDS011;14238;49.496;8.154;2022-11-20T08:04:49;19.30;;;15.13;;
26594;SDS011;14238;49.496;8.154;2022-11-20T08:07:15;22.27;;;19.03;;
26594;SDS011;14238;49.496;8.154;2022-11-20T08:09:40;20.77;;;17.13;;
26594;SDS011;14238;49.496;8.154;2022-11-20T08:12:06;19.33;;;16.13;;
26594;SDS011;14238;49.496;8.154;2022-11-20T08:14:50;18.93;;;14.47;;
26594;SDS011;14238;49.496;8.154;2022-11-20T08:17:15;20.40;;;16.00;;
26594;SDS011;14238;49.496;8.154;2022-11-20T08:19:41;19.37;;;15.60;;
26594;SDS011;14238;49.496;8.154;2022-11-20T08:22:06;20.77;;;18.27;;
26594;SDS011;14238;49.496;8.154;2022-11-20T08:24:32;24.03;;;19.13;;
26594;SDS011;14238;49.496;8.154;2022-11-20T08:26:58;21.13;;;17.23;;
26594;SDS011;14238;49.496;8.154;2022-11-20T08:29:24;31.33;;;24.27;;
26594;SDS011;14238;49.496;8.154;2022-11-20T08:31:51;24.93;;;19.13;;
26594;SDS011;14238;49.496;8.154;2022-11-20T08:34:16;27.20;;;19.93;;
26594;SDS011;14238;49.496;8.154;2022-11-20T08:36:42;23.47;;;18.53;;
26594;SDS011;14238;49.496;8.154;2022-11-20T08:39:08;24.00;;;18.50;;
26594;SDS011;14238;49.496;8.154;2022-11-20T08:41:37;70.70;;;48.53;;
26594;SDS011;14238;49.496;8.154;2022-11-20T08:44:03;28.73;;;22.83;;
26594;SDS011;14238;49.496;8.154;2022-11-20T08:46:33;32.73;;;25.03;;
26594;SDS011;14238;49.496;8.154;2022-11-20T08:49:01;30.07;;;23.47;;
26594;SDS011;14238;49.496;8.154;2022-11-20T08:51:27;25.07;;;19.53;;
26594;SDS011;14238;49.496;8.154;2022-11-20T08:53:52;32.10;;;24.03;;
26594;SDS011;14238;49.496;8.154;2022-11-20T08:56:18;56.23;;;45.13;;
26594;SDS011;14238;49.496;8.154;2022-11-20T08:58:43;16.80;;;13.77;;
26594;SDS011;14238;49.496;8.154;2022-11-20T09:01:09;14.93;;;11.27;;
26594;SDS011;14238;49.496;8.154;2022-11-20T09:03:35;13.17;;;11.23;;
26594;SDS011;14238;49.496;8.154;2022-11-20T09:06:01;15.03;;;12.57;;
26594;SDS011;14238;49.496;8.154;2022-11-20T09:08:29;16.60;;;14.03;;
26594;SDS011;14238;49.496;8.154;2022-11-20T09:10:55;13.23;;;11.83;;
26594;SDS011;14238;49.496;8.154;2022-11-20T09:13:22;13.07;;;11.77;;
26594;SDS011;14238;49.496;8.154;2022-11-20T09:15:59;25.13;;;20.13;;
26594;SDS011;14238;49.496;8.154;2022-11-20T09:18:35;25.70;;;20.97;;
26594;SDS011;14238;49.496;8.154;2022-11-20T09:21:03;15.00;;;12.90;;
26594;SDS011;14238;49.496;8.154;2022-11-20T09:23:31;31.80;;;27.47;;
26594;SDS011;14238;49.496;8.154;2022-11-20T09:26:11;28.80;;;23.20;;
26594;SDS011;14238;49.496;8.154;2022-11-20T09:28:38;29.27;;;23.77;;
26594;SDS011;14238;49.496;8.154;2022-11-20T09:31:09;29.13;;;23.70;;
26594;SDS011;14238;49.496;8.154;2022-11-20T09:33:44;24.23;;;20.07;;
26594;SDS011;14238;49.496;8.154;2022-11-20T09:36:10;25.70;;;21.33;;
26594;SDS011;14238;49.496;8.154;2022-11-20T09:38:35;27.20;;;21.93;;
26594;SDS011;14238;49.496;8.154;2022-11-20T09:41:05;25.90;;;21.10;;
26594;SDS011;14238;49.496;8.154;2022-11-20T09:43:50;30.20;;;22.60;;
26594;SDS011;14238;49.496;8.154;2022-11-20T09:46:31;27.40;;;22.63;;
26594;SDS011;14238;49.496;8.154;2022-11-20T09:49:32;30.50;;;22.23;;
26594;SDS011;14238;49.496;8.154;2022-11-20T09:55:11;28.77;;;23.30;;
26594;SDS011;14238;49.496;8.154;2022-11-20T09:57:40;31.03;;;22.13;;
26594;SDS011;14238;49.496;8.154;2022-11-20T10:00:11;30.50;;;24.23;;
26594;SDS011;14238;49.496;8.154;2022-11-20T10:03:13;31.43;;;23.90;;
26594;SDS011;14238;49.496;8.154;2022-11-20T10:05:35;29.53;;;22.00;;
26594;SDS011;14238;49.496;8.154;2022-11-20T10:10:47;9.53;;;6.50;;
26594;SDS011;14238;49.496;8.154;2022-11-20T10:16:14;6.20;;;5.63;;
26594;SDS011;14238;49.496;8.154;2022-11-20T10:19:13;4.30;;;4.00;;
26594;SDS011;14238;49.496;8.154;2022-11-20T10:21:55;6.27;;;4.30;;
26594;SDS011;14238;49.496;8.154;2022-11-20T10:24:53;3.37;;;3.17;;
26594;SDS011;14238;49.496;8.154;2022-11-20T10:27:39;4.03;;;3.73;;
26594;SDS011;14238;49.496;8.154;2022-11-20T10:30:19;5.63;;;3.90;;
26594;SDS011;14238;49.496;8.154;2022-11-20T10:32:47;3.60;;;3.40;;
26594;SDS011;14238;49.496;8.154;2022-11-20T10:35:38;4.77;;;4.23;;
26594;SDS011;14238;49.496;8.154;2022-11-20T10:38:14;5.10;;;4.70;;
26594;SDS011;14238;49.496;8.154;2022-11-20T10:40:47;4.57;;;4.17;;
26594;SDS011;14238;49.496;8.154;2022-11-20T10:43:32;6.43;;;5.83;;
26594;SDS011;14238;49.496;8.154;2022-11-20T10:46:00;5.17;;;4.77;;
26594;SDS011;14238;49.496;8.154;2022-11-20T10:48:30;4.80;;;4.40;;
26594;SDS011;14238;49.496;8.154;2022-11-20T10:53:54;4.60;;;2.90;;
26594;SDS011;14238;49.496;8.154;2022-11-20T10:56:27;3.43;;;3.20;;
26594;SDS011;14238;49.496;8.154;2022-11-20T11:02:29;3.53;;;3.20;;
26594;SDS011;14238;49.496;8.154;2022-11-20T11:04:57;3.27;;;2.97;;
26594;SDS011;14238;49.496;8.154;2022-11-20T11:07:36;4.10;;;3.30;;
26594;SDS011;14238;49.496;8.154;2022-11-20T11:10:15;4.17;;;3.03;;
26594;SDS011;14238;49.496;8.154;2022-11-20T11:12:45;3.53;;;2.50;;
26594;SDS011;14238;49.496;8.154;2022-11-20T11:15:25;3.63;;;3.30;;
26594;SDS011;14238;49.496;8.154;2022-11-20T11:17:50;3.63;;;3.33;;
26594;SDS011;14238;49.496;8.154;2022-11-20T11:20:18;3.13;;;2.90;;
26594;SDS011;14238;49.496;8.154;2022-11-20T11:22:51;3.33;;;2.87;;
26594;SDS011;14238;49.496;8.154;2022-11-20T11:25:24;4.10;;;3.80;;
26594;SDS011;14238;49.496;8.154;2022-11-20T11:27:53;3.23;;;2.50;;
26594;SDS011;14238;49.496;8.154;2022-11-20T11:30:21;3.27;;;2.90;;
26594;SDS011;14238;49.496;8.154;2022-11-20T11:32:48;5.47;;;2.53;;
26594;SDS011;14238;49.496;8.154;2022-11-20T11:35:25;2.60;;;2.50;;
26594;SDS011;14238;49.496;8.154;2022-11-20T11:37:53;4.43;;;2.80;;
26594;SDS011;14238;49.496;8.154;2022-11-20T11:40:27;3.10;;;2.70;;
26594;SDS011;14238;49.496;8.154;2022-11-20T11:42:59;5.43;;;2.23;;
26594;SDS011;14238;49.496;8.154;2022-11-20T11:45:29;4.50;;;4.10;;
26594;SDS011;14238;49.496;8.154;2022-11-20T11:47:58;3.23;;;2.50;;
26594;SDS011;14238;49.496;8.154;2022-11-20T11:50:28;2.10;;;1.90;;
26594;SDS011;14238;49.496;8.154;2022-11-20T11:55:28;3.10;;;1.87;;
26594;SDS011;14238;49.496;8.154;2022-11-20T11:58:11;7.03;;;2.40;;
26594;SDS011;14238;49.496;8.154;2022-11-20T12:00:41;2.33;;;2.23;;
26594;SDS011;14238;49.496;8.154;2022-11-20T12:03:22;1.83;;;1.70;;
26594;SDS011;14238;49.496;8.154;2022-11-20T12:06:05;2.80;;;2.60;;
26594;SDS011;14238;49.496;8.154;2022-11-20T12:11:30;13.93;;;12.50;;
26594;SDS011;14238;49.496;8.154;2022-11-20T12:16:40;3.03;;;2.80;;
26594;SDS011;14238;49.496;8.154;2022-11-20T12:19:13;3.40;;;2.90;;
26594;SDS011;14238;49.496;8.154;2022-11-20T12:21:46;14.67;;;13.30;;
26594;SDS011;14238;49.496;8.154;2022-11-20T12:29:57;4.83;;;4.43;;
26594;SDS011;14238;49.496;8.154;2022-11-20T12:40:51;4.97;;;2.50;;
26594;SDS011;14238;49.496;8.154;2022-11-20T12:47:17;4.80;;;2.67;;
26594;SDS011;14238;49.496;8.154;2022-11-20T12:50:02;2.80;;;2.60;;
26594;SDS011;14238;49.496;8.154;2022-11-20T12:55:23;6.00;;;2.90;;
26594;SDS011;14238;49.496;8.154;2022-11-20T12:57:56;3.00;;;2.77;;
26594;SDS011;14238;49.496;8.154;2022-11-20T13:00:56;4.73;;;2.73;;
26594;SDS011;14238;49.496;8.154;2022-11-20T13:03:34;4.80;;;3.30;;
26594;SDS011;14238;49.496;8.154;2022-11-20T13:08:39;2.87;;;2.70;;
26594;SDS011;14238;49.496;8.154;2022-11-20T13:11:20;3.43;;;3.13;;
26594;SDS011;14238;49.496;8.154;2022-11-20T13:19:11;2.60;;;2.40;;
26594;SDS011;14238;49.496;8.154;2022-11-20T13:21:40;3.37;;;3.07;;
26594;SDS011;14238;49.496;8.154;2022-11-20T13:24:21;2.80;;;2.27;;
26594;SDS011;14238;49.496;8.154;2022-11-20T13:27:02;3.17;;;2.27;;
26594;SDS011;14238;49.496;8.154;2022-11-20T13:29:37;3.63;;;2.90;;
26594;SDS011;14238;49.496;8.154;2022-11-20T13:32:06;3.37;;;2.30;;
26594;SDS011;14238;49.496;8.154;2022-11-20T13:34:38;3.00;;;2.10;;
26594;SDS011;14238;49.496;8.154;2022-11-20T13:37:04;3.97;;;2.13;;
26594;SDS011;14238;49.496;8.154;2022-11-20T13:39:31;4.63;;;2.00;;
26594;SDS011;14238;49.496;8.154;2022-11-20T13:44:41;2.10;;;1.93;;
26594;SDS011;14238;49.496;8.154;2022-11-20T13:47:25;4.87;;;2.80;;
26594;SDS011;14238;49.496;8.154;2022-11-20T13:49:52;2.10;;;1.90;;
26594;SDS011;14238;49.496;8.154;2022-11-20T13:58:10;2.10;;;2.00;;
26594;SDS011;14238;49.496;8.154;2022-11-20T14:01:09;2.77;;;1.80;;
26594;SDS011;14238;49.496;8.154;2022-11-20T14:03:35;1.70;;;1.60;;
26594;SDS011;14238;49.496;8.154;2022-11-20T14:06:02;2.90;;;1.70;;
26594;SDS011;14238;49.496;8.154;2022-11-20T14:08:35;1.37;;;1.27;;
26594;SDS011;14238;49.496;8.154;2022-11-20T14:13:39;1.70;;;1.60;;
26594;SDS011;14238;49.496;8.154;2022-11-20T14:16:19;4.47;;;1.83;;
26594;SDS011;14238;49.496;8.154;2022-11-20T14:18:45;1.20;;;1.10;;
26594;SDS011;14238;49.496;8.154;2022-11-20T14:21:11;1.50;;;1.40;;
26594;SDS011;14238;49.496;8.154;2022-11-20T14:23:36;1.90;;;1.13;;
26594;SDS011;14238;49.496;8.154;2022-11-20T14:26:03;1.97;;;1.13;;
26594;SDS011;14238;49.496;8.154;2022-11-20T14:28:29;2.60;;;1.30;;
26594;SDS011;14238;49.496;8.154;2022-11-20T14:30:56;2.40;;;1.50;;
26594;SDS011;14238;49.496;8.154;2022-11-20T14:33:22;1.50;;;1.10;;
26594;SDS011;14238;49.496;8.154;2022-11-20T14:35:56;2.20;;;1.40;;
26594;SDS011;14238;49.496;8.154;2022-11-20T14:38:29;2.03;;;1.40;;
26594;SDS011;14238;49.496;8.154;2022-11-20T14:41:14;4.60;;;1.40;;
26594;SDS011;14238;49.496;8.154;2022-11-20T14:43:45;1.73;;;1.63;;
26594;SDS011;14238;49.496;8.154;2022-11-20T14:46:18;2.50;;;1.80;;
26594;SDS011;14238;49.496;8.154;2022-11-20T14:48:47;2.10;;;1.47;;
26594;SDS011;14238;49.496;8.154;2022-11-20T14:51:30;2.33;;;1.30;;
26594;SDS011;14238;49.496;8.154;2022-11-20T14:53:56;1.50;;;1.40;;
26594;SDS011;14238;49.496;8.154;2022-11-20T14:56:32;2.00;;;1.17;;
26594;SDS011;14238;49.496;8.154;2022-11-20T14:58:58;1.60;;;1.50;;
26594;SDS011;14238;49.496;8.154;2022-11-20T15:01:30;2.20;;;1.63;;
26594;SDS011;14238;49.496;8.154;2022-11-20T15:04:06;2.30;;;1.30;;
26594;SDS011;14238;49.496;8.154;2022-11-20T15:06:34;2.07;;;1.70;;
26594;SDS011;14238;49.496;8.154;2022-11-20T15:09:02;3.60;;;1.10;;
26594;SDS011;14238;49.496;8.154;2022-11-20T15:11:33;1.33;;;1.23;;
26594;SDS011;14238;49.496;8.154;2022-11-20T15:14:04;5.63;;;1.50;;
26594;SDS011;14238;49.496;8.154;2022-11-20T15:16:31;1.50;;;1.40;;
26594;SDS011;14238;49.496;8.154;2022-11-20T15:18:57;1.33;;;1.20;;
26594;SDS011;14238;49.496;8.154;2022-11-20T15:21:23;2.07;;;1.87;;
26594;SDS011;14238;49.496;8.154;2022-11-20T15:23:49;2.83;;;1.50;;
26594;SDS011;14238;49.496;8.154;2022-11-20T15:26:25;1.27;;;1.27;;
26594;SDS011;14238;49.496;8.154;2022-11-20T15:28:52;1.17;;;1.07;;
26594;SDS011;14238;49.496;8.154;2022-11-20T15:31:19;4.40;;;2.20;;
26594;SDS011;14238;49.496;8.154;2022-11-20T15:33:46;2.07;;;1.87;;
26594;SDS011;14238;49.496;8.154;2022-11-20T15:36:11;8.03;;;2.53;;
26594;SDS011;14238;49.496;8.154;2022-11-20T15:38:37;2.80;;;2.60;;
26594;SDS011;14238;49.496;8.154;2022-11-20T15:41:03;4.67;;;2.33;;
26594;SDS011;14238;49.496;8.154;2022-11-20T15:43:28;1.43;;;1.30;;
26594;SDS011;14238;49.496;8.154;2022-11-20T15:46:04;2.37;;;1.27;;